Paron, Arkansas
Current Conditions -  °F | °C
As of 11:53 AM on Tuesday 21 Oct 2014 (Local Time) from KHOT Reporting Station
Clear Clear  
Wind Chill: 72°   Ceiling: Unl
Heat Index: 72°   Visibility: 10mi
Dew Point: 59°   Wind: 3mph
Humidity: 64%   Direction: 60°ENE
Pressure: 30.13"   Gusts: NA
Location:  34.77°N, 92.76°W
Report Text: KHOT 211653Z AUTO 06003KT 10SM CLR 22/15 A3013 RMK AO2 SLP200 T02220150
Loading
Personal Weather Stations






























Interactive Weather Map
Tropical Storm Tracking
New forecast layout! Learn more

10-Day Weather Forecast

Advertisements
Track Severe Weather on mobile